Have a Safe July 4th! 

Flight Track Log - Related Links

Times and Time Zones

All times are in EDT time to prevent confusion due to time zone crossing. See the N357FE flight status page for this flight to view local times or setup timezone preferences in your user account.

Time Position Orientation Groundspeed Altitude Reporting Facility
EDT Latitude Longitude Course Direction KTS MPH feet Rate Location/Type
Sat 05:06:45 PM 35.0167 -89.9667 180° South 161 185 900  Level KMEM
Sat 05:07:03 PM 35.0000 -89.9667 180° South 161 185 1,500 1,385 Climbing KMEM
Sat 05:08:03 PM 34.9500 -89.9500 165° South 239 275 2,700 1,619 Climbing KMEM
Sat 05:09:09 PM 34.9833 -89.8500 68° East 270 311 4,900 1,143 Climbing KMEM
Sat 05:10:09 PM 35.0000 -89.7667 76° East 284 327 5,100 1,300 Climbing KMEM
Sat 05:11:09 PM 35.0333 -89.6833 64° Northeast 287 330 7,500 2,550 Climbing KMEM
Sat 05:12:09 PM 35.0833 -89.5833 59° Northeast 305 351 10,200 2,241 Climbing KMEM
Sat 05:12:32 PM 35.0944 -89.5425 72° East 307 353 10,600 1,301 Climbing Memphis Center
Sat 05:13:32 PM 35.1311 -89.4356 67° East 372 428 12,000 1,850 Climbing Memphis Center
Sat 05:14:32 PM 35.1739 -89.3181 66° East 379 436 14,300 2,000 Climbing Memphis Center
Sat 05:15:32 PM 35.2189 -89.1903 67° East 389 448 16,000 1,800 Climbing Memphis Center
Sat 05:16:32 PM 35.2739 -89.0650 62° Northeast 402 463 17,900 1,700 Climbing Memphis Center
Sat 05:17:32 PM 35.3331 -88.9394 60° Northeast 414 476 19,400 1,350 Climbing Memphis Center
Sat 05:18:32 PM 35.3939 -88.8058 61° Northeast 434 499 20,600 1,350 Climbing Memphis Center
Sat 05:19:32 PM 35.4567 -88.6672 61° Northeast 451 519 22,100 1,200 Climbing Memphis Center
Sat 05:25:12 PM 35.6490 -87.7460 61° Northeast 528 608 28,600 1,123 Climbing FlightAware ADS-B
Sat 05:26:02 PM 35.7020 -87.5930 67° East 534 615 29,400 800 Climbing FlightAware ADS-B
Sat 05:26:42 PM 35.7390 -87.4890 66° East 540 621 29,800 733 Climbing FlightAware ADS-B
Sat 05:27:32 PM 35.7880 -87.3500 66° East 546 628 30,500 733 Climbing FlightAware ADS-B
Sat 05:28:12 PM 35.8310 -87.2260 67° East 554 638 30,900 635 Climbing FlightAware ADS-B
Sat 05:28:57 PM 35.8770 -87.0980 66° East 560 644 31,400 600 Climbing FlightAware ADS-B
Sat 05:29:32 PM 35.9130 -86.9950 67° East 567 652 31,700 900 Climbing FlightAware ADS-B
Sat 05:30:17 PM 35.9500 -86.8530 72° East 564 649 32,600 1,267 Climbing FlightAware ADS-B
Sat 05:31:02 PM 35.9856 -86.7097 73° East 555 639 33,600 1,105 Climbing FlightAware ADS-B
Sat 05:31:33 PM 36.0185 -86.6176 66° East 554 638 34,000 353 Climbing FlightAware ADS-B
Sat 05:32:10 PM 36.0554 -86.5116 67° East 566 651 34,000  Level FlightAware ADS-B
Sat 05:32:59 PM 36.1060 -86.3619 67° East 569 655 34,000  Level FlightAware ADS-B
Sat 05:33:30 PM 36.1379 -86.2722 66° East 569 655 34,000  Level FlightAware ADS-B
Sat 05:34:00 PM 36.1690 -86.1828 67° East 568 654 34,000  Level FlightAware ADS-B
Sat 05:34:31 PM 36.2010 -86.0901 67° East 569 655 34,000  Level FlightAware ADS-B
Sat 05:35:03 PM 36.2347 -85.9913 67° East 570 656 34,000  Level FlightAware ADS-B
Sat 05:35:57 PM 36.2870 -85.8380 67° East 571 657 34,000 80 Level FlightAware ADS-B
Sat 05:36:18 PM 36.3122 -85.7659 67° East 571 657 34,100 615 Climbing FlightAware ADS-B
Sat 05:36:36 PM 36.3349 -85.7148 61° Northeast 564 649 34,400 980 Climbing FlightAware ADS-B
Sat 05:37:07 PM 36.3838 -85.6392 51° Northeast 554 638 34,900 514 Climbing FlightAware ADS-B
Sat 05:37:46 PM 36.4479 -85.5405 51° Northeast 553 636 35,000 81 Climbing FlightAware ADS-B
Sat 05:38:21 PM 36.5035 -85.4566 50° Northeast 554 638 35,000  Level FlightAware ADS-B
Sat 05:38:52 PM 36.5538 -85.3804 51° Northeast 555 639 35,000  Level FlightAware ADS-B
Sat 05:39:23 PM 36.6054 -85.3012 51° Northeast 556 640 35,000  Level FlightAware ADS-B
Sat 05:39:56 PM 36.6600 -85.2197 50° Northeast 558 642 35,000  Level FlightAware ADS-B
Sat 05:40:27 PM 36.7104 -85.1432 51° Northeast 558 642 35,000  Level FlightAware ADS-B
Sat 05:40:43 PM 36.7368 -85.1028 51° Northeast 560 644 35,000  Level FlightAware ADS-B
Sat 05:41:06 PM 36.7685 -85.0401 58° Northeast 565 650 35,000  Level FlightAware ADS-B
Sat 05:41:28 PM 36.7921 -84.9745 66° East 568 654 35,000  Level FlightAware ADS-B
Sat 05:41:58 PM 36.8177 -84.8816 71° East 568 654 35,000  Level FlightAware ADS-B
Sat 05:42:30 PM 36.8444 -84.7854 71° East 569 655 35,000  Level FlightAware ADS-B
Sat 05:43:05 PM 36.8746 -84.6737 71° East 569 655 35,000  Level FlightAware ADS-B
Sat 05:43:37 PM 36.9017 -84.5741 71° East 570 656 35,000  Level FlightAware ADS-B
Sat 05:44:08 PM 36.9273 -84.4807 71° East 570 656 35,000  Level FlightAware ADS-B
Sat 05:44:39 PM 36.9534 -84.3841 71° East 569 655 35,000  Level FlightAware ADS-B
Sat 05:45:17 PM 36.9856 -84.2661 71° East 569 655 35,000  Level FlightAware ADS-B
Sat 05:45:48 PM 37.0117 -84.1692 71° East 570 656 35,000  Level FlightAware ADS-B
Sat 05:46:19 PM 37.0378 -84.0695 72° East 570 656 35,000  Level FlightAware ADS-B
Sat 05:46:50 PM 37.0635 -83.9723 72° East 570 656 35,000  Level FlightAware ADS-B
Sat 05:47:21 PM 37.0886 -83.8785 71° East 570 656 35,000  Level FlightAware ADS-B
Sat 05:47:51 PM 37.1136 -83.7845 72° East 571 657 35,000  Level FlightAware ADS-B
Sat 05:48:25 PM 37.1423 -83.6746 72° East 571 657 35,000  Level FlightAware ADS-B
Sat 05:48:57 PM 37.1684 -83.5742 72° East 571 657 35,000  Level FlightAware ADS-B
Sat 05:49:27 PM 37.1932 -83.4800 72° East 571 657 35,000  Level FlightAware ADS-B
Sat 05:49:58 PM 37.2183 -83.3857 71° East 571 657 35,000  Level FlightAware ADS-B
Sat 05:50:37 PM 37.2504 -83.2599 72° East 572 658 35,000  Level FlightAware ADS-B
Sat 05:51:07 PM 37.2749 -83.1653 72° East 571 657 35,000  Level FlightAware ADS-B
Sat 05:51:37 PM 37.2991 -83.0708 72° East 570 656 35,000  Level FlightAware ADS-B
Sat 05:52:45 PM 37.3538 -82.8597 72° East 570 656 35,000  Level FlightAware ADS-B
Sat 05:53:17 PM 37.3794 -82.7557 73° East 570 656 35,000  Level FlightAware ADS-B
Sat 05:53:49 PM 37.4048 -82.6578 72° East 570 656 35,000  Level FlightAware ADS-B
Sat 05:55:20 PM 37.4776 -82.3672 72° East 571 657 35,000  Level FlightAware ADS-B
Sat 05:55:51 PM 37.5021 -82.2690 73° East 570 656 35,000  Level FlightAware ADS-B
Sat 05:56:23 PM 37.5273 -82.1680 73° East 569 655 35,000  Level FlightAware ADS-B
Sat 05:56:54 PM 37.5515 -82.0697 73° East 569 655 35,000  Level FlightAware ADS-B
Sat 05:57:31 PM 37.5799 -81.9557 73° East 569 655 35,000  Level FlightAware ADS-B
Sat 05:58:02 PM 37.6037 -81.8576 73° East 570 656 35,000  Level FlightAware ADS-B
Sat 05:58:35 PM 37.6296 -81.7496 73° East 570 656 35,000  Level FlightAware ADS-B
Sat 05:59:17 PM 37.6600 -81.6260 73° East 569 655 35,000  Level FlightAware ADS-B
Sat 05:59:19 PM 37.6633 -81.6133 72° East 569 655 35,000  Level FlightAware ADS-B
Sat 05:59:49 PM 37.6868 -81.5145 73° East 569 655 35,000  Level FlightAware ADS-B
Sat 06:00:42 PM 37.7250 -81.3560 73° East 569 655 35,000  Level FlightAware ADS-B
Sat 06:01:12 PM 37.7499 -81.2511 73° East 569 655 35,000  Level FlightAware ADS-B
Sat 06:01:42 PM 37.7728 -81.1557 73° East 568 654 35,000  Level FlightAware ADS-B
Sat 06:02:00 PM 37.7886 -81.1025 69° East 570 656 35,000  Level FlightAware ADS-B
Sat 06:02:47 PM 37.8380 -80.9590 66° East 571 657 35,000  Level FlightAware ADS-B
Sat 06:03:27 PM 37.8800 -80.8400 66° East 572 658 35,000  Level FlightAware ADS-B
Sat 06:04:12 PM 37.9300 -80.7040 65° Northeast 571 657 35,000  Level FlightAware ADS-B
Sat 06:04:52 PM 37.9900 -80.5980 54° Northeast 569 655 35,000  Level FlightAware ADS-B
Sat 06:05:32 PM 38.0540 -80.4920 52° Northeast 569 655 35,000  Level FlightAware ADS-B
Sat 06:06:17 PM 38.1280 -80.3700 52° Northeast 570 656 35,000  Level FlightAware ADS-B
Sat 06:06:57 PM 38.1920 -80.2630 53° Northeast 571 657 35,000 -71 Level FlightAware ADS-B
Sat 06:07:42 PM 38.2480 -80.1340 61° Northeast 568 654 34,900 -1,412 Descending FlightAware ADS-B
Sat 06:08:22 PM 38.2950 -80.0120 64° Northeast 563 648 33,000 -3,225 Descending FlightAware ADS-B
Sat 06:09:02 PM 38.3400 -79.8950 64° Northeast 573 659 30,600 -3,318 Descending FlightAware ADS-B
Sat 06:09:47 PM 38.3940 -79.7570 63° Northeast 563 648 28,300 -2,682 Descending FlightAware ADS-B
Sat 06:10:27 PM 38.4380 -79.6420 64° Northeast 547 629 26,800 -2,259 Descending FlightAware ADS-B
Sat 06:11:12 PM 38.4870 -79.5140 64° Northeast 531 611 25,100 -2,080 Descending FlightAware ADS-B
Sat 06:11:42 PM 38.5170 -79.4350 64° Northeast 522 601 24,200 -720 Descending FlightAware ADS-B
Sat 06:12:27 PM 38.5590 -79.3190 65° Northeast 522 601 24,200 -1,882 Level FlightAware ADS-B
Sat 06:15:02 PM 38.6160 -78.8790 80° East 18,600 -2,366 Descending FlightAware ADS-B
Sat 06:15:22 PM 38.6200 -78.8550 78° East 455 524 17,300 -3,480 Descending FlightAware ADS-B
Sat 06:15:52 PM 38.6430 -78.7470 75° East 461 531 15,700 -2,329 Descending FlightAware ADS-B
Sat 06:16:47 PM 38.6760 -78.6080 73° East 434 499 14,000 -2,467 Descending FlightAware ADS-B
Sat 06:17:22 PM 38.6960 -78.5240 73° East 416 479 12,000 -2,100 Descending FlightAware ADS-B
Sat 06:18:07 PM 38.7180 -78.4330 73° East 379 436 11,200 -867 Descending FlightAware ADS-B
Sat 06:18:52 PM 38.7530 -78.3440 63° Northeast 315 362 10,700 -892 Descending FlightAware ADS-B
Sat 06:21:22 PM 38.8710 -78.1360 54° Northeast 297 342 8,300 -642 Descending FlightAware ADS-B
Sat 06:26:02 PM 38.9570 -77.6800 76° East 278 320 6,100 -433 Descending FlightAware ADS-B
Sat 06:26:27 PM 38.9530 -77.6400 97° East 278 320 6,100  Level FlightAware ADS-B
Sat 06:26:47 PM 38.9710 -77.6090 53° Northeast 280 322 6,100  Level FlightAware ADS-B
Sat 06:27:02 PM 38.9870 -77.5960 32° Northeast 277 319 6,100  Level FlightAware ADS-B
Sat 06:27:32 PM 39.0210 -77.5770 23° Northeast 250 288 6,100  Level FlightAware ADS-B
Sat 06:28:07 PM 39.0560 -77.5760 North 197 227 6,100 -635 Level FlightAware ADS-B
Sat 06:28:57 PM 39.1000 -77.5690 North 207 238 5,200 -1,200 Descending FlightAware ADS-B
Sat 06:29:07 PM 39.1060 -77.5580 55° Northeast 208 239 4,900 -1,440 Descending FlightAware ADS-B
Sat 06:29:22 PM 39.1090 -77.5400 78° East 203 234 4,600 -1,333 Descending FlightAware ADS-B
Sat 06:29:52 PM 39.1070 -77.5100 95° East 199 229 3,900 -764 Descending FlightAware ADS-B
Sat 06:30:17 PM 39.1020 -77.4820 103° East 199 229 3,900 -1,548 Level FlightAware ADS-B
Sat 06:30:54 PM 39.0667 -77.4667 103° East 167 192 2,300 -1,485 Descending Potomac TRACON
Sat 06:31:54 PM 39.0333 -77.4500 159° South 152 175 1,500 -737 Descending Potomac TRACON
Sat 06:32:48 PM 39.0000 -77.4667 201° Southwest 147 169 900 -667 Descending Potomac TRACON
Sat 06:34:00 PM 38.9474 -77.4599 165° South  Level Estimated
Sat 06:41:00 PM 38.9474 -77.4599 165° South  Level Estimated
Sat 06:42:00 PM 38.9474 -77.4599 165° South  Level Estimated
Sat 06:43:00 PM 38.9474 -77.4599 165° South  Level Estimated

Login

Don't have an account? Register now (free) for customized features, flight alerts, and more!